sensor_id;sensor_type;location;lat;lon;timestamp;P1;durP1;ratioP1;P2;durP2;ratioP2
9960;SDS011;5021;51.506;11.320;2022-12-18T00:00:45;19.00;;;11.93;;
9960;SDS011;5021;51.506;11.320;2022-12-18T00:03:12;18.03;;;11.30;;
9960;SDS011;5021;51.506;11.320;2022-12-18T00:05:45;17.90;;;11.13;;
9960;SDS011;5021;51.506;11.320;2022-12-18T00:08:11;23.53;;;14.53;;
9960;SDS011;5021;51.506;11.320;2022-12-18T00:10:37;25.40;;;15.33;;
9960;SDS011;5021;51.506;11.320;2022-12-18T00:13:03;25.03;;;15.20;;
9960;SDS011;5021;51.506;11.320;2022-12-18T00:15:29;24.20;;;14.57;;
9960;SDS011;5021;51.506;11.320;2022-12-18T00:17:54;18.03;;;12.93;;
9960;SDS011;5021;51.506;11.320;2022-12-18T00:20:20;21.50;;;13.07;;
9960;SDS011;5021;51.506;11.320;2022-12-18T00:22:50;21.00;;;12.77;;
9960;SDS011;5021;51.506;11.320;2022-12-18T00:25:16;21.20;;;13.27;;
9960;SDS011;5021;51.506;11.320;2022-12-18T00:27:42;18.63;;;12.23;;
9960;SDS011;5021;51.506;11.320;2022-12-18T00:30:09;21.63;;;12.77;;
9960;SDS011;5021;51.506;11.320;2022-12-18T00:32:35;16.00;;;11.67;;
9960;SDS011;5021;51.506;11.320;2022-12-18T00:35:01;19.23;;;12.53;;
9960;SDS011;5021;51.506;11.320;2022-12-18T00:37:27;18.43;;;12.13;;
9960;SDS011;5021;51.506;11.320;2022-12-18T00:39:53;17.63;;;11.53;;
9960;SDS011;5021;51.506;11.320;2022-12-18T00:42:19;19.23;;;12.13;;
9960;SDS011;5021;51.506;11.320;2022-12-18T00:45:03;18.33;;;11.83;;
9960;SDS011;5021;51.506;11.320;2022-12-18T00:47:29;20.00;;;11.83;;
9960;SDS011;5021;51.506;11.320;2022-12-18T00:49:55;21.57;;;12.07;;
9960;SDS011;5021;51.506;11.320;2022-12-18T00:52:21;17.37;;;10.90;;
9960;SDS011;5021;51.506;11.320;2022-12-18T00:54:47;20.43;;;11.93;;
9960;SDS011;5021;51.506;11.320;2022-12-18T00:57:13;18.63;;;11.90;;
9960;SDS011;5021;51.506;11.320;2022-12-18T00:59:39;20.27;;;12.83;;
9960;SDS011;5021;51.506;11.320;2022-12-18T01:02:05;18.07;;;12.60;;
9960;SDS011;5021;51.506;11.320;2022-12-18T01:04:31;27.50;;;14.43;;
9960;SDS011;5021;51.506;11.320;2022-12-18T01:06:58;22.30;;;14.20;;
9960;SDS011;5021;51.506;11.320;2022-12-18T01:09:24;25.57;;;15.23;;
9960;SDS011;5021;51.506;11.320;2022-12-18T01:11:51;26.33;;;15.37;;
9960;SDS011;5021;51.506;11.320;2022-12-18T01:14:17;25.30;;;15.63;;
9960;SDS011;5021;51.506;11.320;2022-12-18T01:16:43;27.57;;;15.30;;
9960;SDS011;5021;51.506;11.320;2022-12-18T01:19:09;22.73;;;14.27;;
9960;SDS011;5021;51.506;11.320;2022-12-18T01:21:35;25.40;;;15.00;;
9960;SDS011;5021;51.506;11.320;2022-12-18T01:24:01;25.27;;;15.30;;
9960;SDS011;5021;51.506;11.320;2022-12-18T01:26:27;24.60;;;16.10;;
9960;SDS011;5021;51.506;11.320;2022-12-18T01:28:54;23.43;;;15.53;;
9960;SDS011;5021;51.506;11.320;2022-12-18T01:31:22;26.03;;;15.73;;
9960;SDS011;5021;51.506;11.320;2022-12-18T01:33:48;22.10;;;15.27;;
9960;SDS011;5021;51.506;11.320;2022-12-18T01:36:19;25.00;;;14.37;;
9960;SDS011;5021;51.506;11.320;2022-12-18T01:38:46;23.63;;;14.37;;
9960;SDS011;5021;51.506;11.320;2022-12-18T01:41:12;25.23;;;14.67;;
9960;SDS011;5021;51.506;11.320;2022-12-18T01:43:49;25.53;;;15.27;;
9960;SDS011;5021;51.506;11.320;2022-12-18T01:46:15;24.77;;;14.70;;
9960;SDS011;5021;51.506;11.320;2022-12-18T01:48:41;25.03;;;14.50;;
9960;SDS011;5021;51.506;11.320;2022-12-18T01:51:09;21.80;;;12.63;;
9960;SDS011;5021;51.506;11.320;2022-12-18T01:53:35;22.03;;;13.77;;
9960;SDS011;5021;51.506;11.320;2022-12-18T01:56:02;21.53;;;12.73;;
9960;SDS011;5021;51.506;11.320;2022-12-18T01:58:48;24.23;;;14.30;;
9960;SDS011;5021;51.506;11.320;2022-12-18T02:01:15;17.73;;;11.97;;
9960;SDS011;5021;51.506;11.320;2022-12-18T02:03:42;21.47;;;13.30;;
9960;SDS011;5021;51.506;11.320;2022-12-18T02:08:40;21.73;;;13.97;;
9960;SDS011;5021;51.506;11.320;2022-12-18T02:11:27;18.57;;;13.13;;
9960;SDS011;5021;51.506;11.320;2022-12-18T02:14:17;19.27;;;13.07;;
9960;SDS011;5021;51.506;11.320;2022-12-18T02:22:07;20.87;;;13.37;;
9960;SDS011;5021;51.506;11.320;2022-12-18T02:24:43;21.43;;;12.80;;
9960;SDS011;5021;51.506;11.320;2022-12-18T02:27:09;24.30;;;13.70;;
9960;SDS011;5021;51.506;11.320;2022-12-18T02:29:51;19.73;;;13.17;;
9960;SDS011;5021;51.506;11.320;2022-12-18T02:32:20;22.27;;;13.13;;
9960;SDS011;5021;51.506;11.320;2022-12-18T02:34:46;20.90;;;13.40;;
9960;SDS011;5021;51.506;11.320;2022-12-18T02:37:14;25.80;;;13.97;;
9960;SDS011;5021;51.506;11.320;2022-12-18T02:39:42;21.53;;;13.90;;
9960;SDS011;5021;51.506;11.320;2022-12-18T02:45:12;25.30;;;15.60;;
9960;SDS011;5021;51.506;11.320;2022-12-18T02:47:39;23.27;;;14.10;;
9960;SDS011;5021;51.506;11.320;2022-12-18T02:52:41;26.13;;;14.80;;
9960;SDS011;5021;51.506;11.320;2022-12-18T02:57:45;25.70;;;15.23;;
9960;SDS011;5021;51.506;11.320;2022-12-18T03:00:18;22.93;;;15.07;;
9960;SDS011;5021;51.506;11.320;2022-12-18T03:02:47;24.83;;;15.67;;
9960;SDS011;5021;51.506;11.320;2022-12-18T03:05:16;22.67;;;15.20;;
9960;SDS011;5021;51.506;11.320;2022-12-18T03:07:53;25.47;;;15.50;;
9960;SDS011;5021;51.506;11.320;2022-12-18T03:10:27;24.50;;;14.50;;
9960;SDS011;5021;51.506;11.320;2022-12-18T03:12:54;23.07;;;14.63;;
9960;SDS011;5021;51.506;11.320;2022-12-18T03:15:25;21.87;;;13.23;;
9960;SDS011;5021;51.506;11.320;2022-12-18T03:18:04;23.47;;;13.90;;
9960;SDS011;5021;51.506;11.320;2022-12-18T03:20:32;21.73;;;13.07;;
9960;SDS011;5021;51.506;11.320;2022-12-18T03:23:05;20.57;;;13.70;;
9960;SDS011;5021;51.506;11.320;2022-12-18T03:25:33;19.40;;;13.43;;
9960;SDS011;5021;51.506;11.320;2022-12-18T03:28:00;21.87;;;13.20;;
9960;SDS011;5021;51.506;11.320;2022-12-18T03:30:28;22.97;;;13.03;;
9960;SDS011;5021;51.506;11.320;2022-12-18T03:33:15;20.57;;;13.70;;
9960;SDS011;5021;51.506;11.320;2022-12-18T03:35:44;20.13;;;13.80;;
9960;SDS011;5021;51.506;11.320;2022-12-18T03:38:10;24.53;;;14.13;;
9960;SDS011;5021;51.506;11.320;2022-12-18T03:43:42;27.90;;;14.73;;
9960;SDS011;5021;51.506;11.320;2022-12-18T03:48:52;22.73;;;14.30;;
9960;SDS011;5021;51.506;11.320;2022-12-18T03:51:26;24.73;;;15.57;;
9960;SDS011;5021;51.506;11.320;2022-12-18T03:54:00;23.07;;;15.10;;
9960;SDS011;5021;51.506;11.320;2022-12-18T03:56:29;26.87;;;15.33;;
9960;SDS011;5021;51.506;11.320;2022-12-18T03:58:57;24.37;;;15.17;;
9960;SDS011;5021;51.506;11.320;2022-12-18T04:01:26;23.77;;;15.33;;
9960;SDS011;5021;51.506;11.320;2022-12-18T04:03:54;27.27;;;15.20;;
9960;SDS011;5021;51.506;11.320;2022-12-18T04:06:20;30.77;;;15.93;;
9960;SDS011;5021;51.506;11.320;2022-12-18T04:08:47;25.43;;;14.27;;
9960;SDS011;5021;51.506;11.320;2022-12-18T04:11:13;27.73;;;16.43;;
9960;SDS011;5021;51.506;11.320;2022-12-18T04:13:39;26.80;;;16.60;;
9960;SDS011;5021;51.506;11.320;2022-12-18T04:16:05;24.60;;;15.00;;
9960;SDS011;5021;51.506;11.320;2022-12-18T04:18:31;22.53;;;14.60;;
9960;SDS011;5021;51.506;11.320;2022-12-18T04:20:57;27.23;;;15.13;;
9960;SDS011;5021;51.506;11.320;2022-12-18T04:23:23;22.97;;;14.53;;
9960;SDS011;5021;51.506;11.320;2022-12-18T04:25:48;23.73;;;15.40;;
9960;SDS011;5021;51.506;11.320;2022-12-18T04:28:14;29.33;;;15.97;;
9960;SDS011;5021;51.506;11.320;2022-12-18T04:30:40;23.53;;;15.43;;
9960;SDS011;5021;51.506;11.320;2022-12-18T04:33:10;24.10;;;15.77;;
9960;SDS011;5021;51.506;11.320;2022-12-18T04:35:36;29.83;;;16.40;;
9960;SDS011;5021;51.506;11.320;2022-12-18T04:38:02;27.30;;;15.67;;
9960;SDS011;5021;51.506;11.320;2022-12-18T04:40:28;25.17;;;15.70;;
9960;SDS011;5021;51.506;11.320;2022-12-18T04:42:54;30.93;;;16.73;;
9960;SDS011;5021;51.506;11.320;2022-12-18T04:45:20;31.30;;;16.40;;
9960;SDS011;5021;51.506;11.320;2022-12-18T04:47:46;27.20;;;15.87;;
9960;SDS011;5021;51.506;11.320;2022-12-18T04:50:12;25.10;;;15.57;;
9960;SDS011;5021;51.506;11.320;2022-12-18T04:52:38;29.40;;;16.53;;
9960;SDS011;5021;51.506;11.320;2022-12-18T04:55:04;29.40;;;16.55;;
9960;SDS011;5021;51.506;11.320;2022-12-18T04:57:30;26.42;;;16.10;;
9960;SDS011;5021;51.506;11.320;2022-12-18T04:59:56;25.63;;;15.77;;
9960;SDS011;5021;51.506;11.320;2022-12-18T05:02:22;28.07;;;16.50;;
9960;SDS011;5021;51.506;11.320;2022-12-18T05:04:48;28.00;;;16.97;;
9960;SDS011;5021;51.506;11.320;2022-12-18T05:07:14;29.93;;;17.53;;
9960;SDS011;5021;51.506;11.320;2022-12-18T05:09:40;32.20;;;17.37;;
9960;SDS011;5021;51.506;11.320;2022-12-18T05:12:06;26.97;;;17.57;;
9960;SDS011;5021;51.506;11.320;2022-12-18T05:14:32;27.13;;;17.60;;
9960;SDS011;5021;51.506;11.320;2022-12-18T05:16:58;29.10;;;18.87;;
9960;SDS011;5021;51.506;11.320;2022-12-18T05:19:24;31.87;;;19.47;;
9960;SDS011;5021;51.506;11.320;2022-12-18T05:21:50;37.13;;;20.57;;
9960;SDS011;5021;51.506;11.320;2022-12-18T05:24:16;34.70;;;19.37;;
9960;SDS011;5021;51.506;11.320;2022-12-18T05:26:42;32.90;;;19.60;;
9960;SDS011;5021;51.506;11.320;2022-12-18T05:29:08;34.57;;;19.73;;
9960;SDS011;5021;51.506;11.320;2022-12-18T05:31:37;37.83;;;22.30;;
9960;SDS011;5021;51.506;11.320;2022-12-18T05:34:03;31.53;;;19.27;;
9960;SDS011;5021;51.506;11.320;2022-12-18T05:36:29;33.77;;;19.90;;
9960;SDS011;5021;51.506;11.320;2022-12-18T05:38:55;32.53;;;19.67;;
9960;SDS011;5021;51.506;11.320;2022-12-18T05:41:20;36.30;;;21.07;;
9960;SDS011;5021;51.506;11.320;2022-12-18T05:43:46;41.03;;;21.43;;
9960;SDS011;5021;51.506;11.320;2022-12-18T05:46:14;40.03;;;22.33;;
9960;SDS011;5021;51.506;11.320;2022-12-18T05:48:41;30.07;;;18.97;;
9960;SDS011;5021;51.506;11.320;2022-12-18T05:51:08;35.07;;;21.10;;
9960;SDS011;5021;51.506;11.320;2022-12-18T05:53:34;34.65;;;19.75;;
9960;SDS011;5021;51.506;11.320;2022-12-18T05:56:02;34.87;;;19.43;;
9960;SDS011;5021;51.506;11.320;2022-12-18T05:58:28;41.17;;;23.53;;
9960;SDS011;5021;51.506;11.320;2022-12-18T06:00:54;33.57;;;18.53;;
9960;SDS011;5021;51.506;11.320;2022-12-18T06:03:20;34.37;;;20.23;;
9960;SDS011;5021;51.506;11.320;2022-12-18T06:05:46;32.20;;;18.87;;
9960;SDS011;5021;51.506;11.320;2022-12-18T06:08:12;29.57;;;16.97;;
9960;SDS011;5021;51.506;11.320;2022-12-18T06:10:38;28.88;;;16.85;;
9960;SDS011;5021;51.506;11.320;2022-12-18T06:13:05;27.77;;;16.23;;
9960;SDS011;5021;51.506;11.320;2022-12-18T06:15:31;35.47;;;19.15;;
9960;SDS011;5021;51.506;11.320;2022-12-18T06:17:57;32.40;;;18.27;;
9960;SDS011;5021;51.506;11.320;2022-12-18T06:20:22;31.57;;;18.67;;
9960;SDS011;5021;51.506;11.320;2022-12-18T06:22:48;30.10;;;18.53;;
9960;SDS011;5021;51.506;11.320;2022-12-18T06:25:14;29.77;;;17.50;;
9960;SDS011;5021;51.506;11.320;2022-12-18T06:27:40;27.90;;;17.52;;
9960;SDS011;5021;51.506;11.320;2022-12-18T06:30:07;29.33;;;17.90;;
9960;SDS011;5021;51.506;11.320;2022-12-18T06:32:33;32.70;;;18.20;;
9960;SDS011;5021;51.506;11.320;2022-12-18T06:34:59;30.70;;;18.30;;
9960;SDS011;5021;51.506;11.320;2022-12-18T06:37:25;33.83;;;19.13;;
9960;SDS011;5021;51.506;11.320;2022-12-18T06:39:51;26.35;;;16.63;;
9960;SDS011;5021;51.506;11.320;2022-12-18T06:42:18;29.63;;;17.50;;
9960;SDS011;5021;51.506;11.320;2022-12-18T06:44:43;31.30;;;19.17;;
9960;SDS011;5021;51.506;11.320;2022-12-18T06:47:09;28.67;;;18.13;;
9960;SDS011;5021;51.506;11.320;2022-12-18T06:49:35;32.10;;;18.73;;
9960;SDS011;5021;51.506;11.320;2022-12-18T06:52:01;29.50;;;17.20;;
9960;SDS011;5021;51.506;11.320;2022-12-18T06:54:27;29.83;;;17.83;;
9960;SDS011;5021;51.506;11.320;2022-12-18T06:56:53;30.27;;;17.87;;
9960;SDS011;5021;51.506;11.320;2022-12-18T06:59:19;31.43;;;18.50;;
9960;SDS011;5021;51.506;11.320;2022-12-18T07:01:45;27.20;;;17.83;;
9960;SDS011;5021;51.506;11.320;2022-12-18T07:04:11;28.60;;;17.53;;
9960;SDS011;5021;51.506;11.320;2022-12-18T07:06:37;31.40;;;17.93;;
9960;SDS011;5021;51.506;11.320;2022-12-18T07:09:03;26.30;;;17.47;;
9960;SDS011;5021;51.506;11.320;2022-12-18T07:11:29;27.58;;;16.70;;
9960;SDS011;5021;51.506;11.320;2022-12-18T07:13:59;25.10;;;15.80;;
9960;SDS011;5021;51.506;11.320;2022-12-18T07:16:25;29.65;;;17.23;;
9960;SDS011;5021;51.506;11.320;2022-12-18T07:18:54;25.27;;;16.33;;
9960;SDS011;5021;51.506;11.320;2022-12-18T07:21:20;27.88;;;17.40;;
9960;SDS011;5021;51.506;11.320;2022-12-18T07:23:46;27.02;;;17.65;;
9960;SDS011;5021;51.506;11.320;2022-12-18T07:26:12;31.95;;;18.35;;
9960;SDS011;5021;51.506;11.320;2022-12-18T07:28:39;27.60;;;18.08;;
9960;SDS011;5021;51.506;11.320;2022-12-18T07:31:10;27.48;;;17.63;;
9960;SDS011;5021;51.506;11.320;2022-12-18T07:33:36;28.98;;;17.45;;
9960;SDS011;5021;51.506;11.320;2022-12-18T07:36:03;29.17;;;18.23;;
9960;SDS011;5021;51.506;11.320;2022-12-18T07:38:30;27.17;;;17.55;;
9960;SDS011;5021;51.506;11.320;2022-12-18T07:41:06;32.83;;;17.70;;
9960;SDS011;5021;51.506;11.320;2022-12-18T07:43:32;30.98;;;18.80;;
9960;SDS011;5021;51.506;11.320;2022-12-18T07:45:59;28.88;;;17.58;;
9960;SDS011;5021;51.506;11.320;2022-12-18T07:48:25;29.25;;;17.00;;
9960;SDS011;5021;51.506;11.320;2022-12-18T07:50:51;36.50;;;19.02;;
9960;SDS011;5021;51.506;11.320;2022-12-18T07:53:17;32.43;;;18.70;;
9960;SDS011;5021;51.506;11.320;2022-12-18T07:55:43;33.73;;;19.80;;
9960;SDS011;5021;51.506;11.320;2022-12-18T07:58:09;32.23;;;20.43;;
9960;SDS011;5021;51.506;11.320;2022-12-18T08:00:35;29.80;;;19.23;;
9960;SDS011;5021;51.506;11.320;2022-12-18T08:03:01;28.05;;;18.25;;
9960;SDS011;5021;51.506;11.320;2022-12-18T08:05:27;26.27;;;17.00;;
9960;SDS011;5021;51.506;11.320;2022-12-18T08:07:54;31.50;;;18.67;;
9960;SDS011;5021;51.506;11.320;2022-12-18T08:10:20;29.00;;;18.27;;
9960;SDS011;5021;51.506;11.320;2022-12-18T08:12:50;28.83;;;18.13;;
9960;SDS011;5021;51.506;11.320;2022-12-18T08:15:16;31.77;;;18.45;;
9960;SDS011;5021;51.506;11.320;2022-12-18T08:17:42;30.70;;;18.15;;
9960;SDS011;5021;51.506;11.320;2022-12-18T08:20:08;36.27;;;21.00;;
9960;SDS011;5021;51.506;11.320;2022-12-18T08:22:35;32.97;;;20.08;;
9960;SDS011;5021;51.506;11.320;2022-12-18T08:25:01;31.95;;;20.77;;
9960;SDS011;5021;51.506;11.320;2022-12-18T08:27:27;36.38;;;21.17;;
9960;SDS011;5021;51.506;11.320;2022-12-18T08:29:53;38.57;;;20.93;;
9960;SDS011;5021;51.506;11.320;2022-12-18T08:32:19;40.83;;;23.53;;
9960;SDS011;5021;51.506;11.320;2022-12-18T08:34:45;45.17;;;25.13;;
9960;SDS011;5021;51.506;11.320;2022-12-18T08:37:11;34.43;;;21.97;;
9960;SDS011;5021;51.506;11.320;2022-12-18T08:39:37;48.85;;;25.05;;
9960;SDS011;5021;51.506;11.320;2022-12-18T08:42:03;44.77;;;26.57;;
9960;SDS011;5021;51.506;11.320;2022-12-18T08:44:48;44.83;;;27.17;;
9960;SDS011;5021;51.506;11.320;2022-12-18T08:47:14;42.83;;;26.47;;
9960;SDS011;5021;51.506;11.320;2022-12-18T08:49:39;40.73;;;25.07;;
9960;SDS011;5021;51.506;11.320;2022-12-18T08:52:05;39.33;;;24.20;;
9960;SDS011;5021;51.506;11.320;2022-12-18T08:54:31;36.50;;;23.73;;
9960;SDS011;5021;51.506;11.320;2022-12-18T08:56:57;44.40;;;25.27;;
9960;SDS011;5021;51.506;11.320;2022-12-18T08:59:23;39.40;;;23.00;;
9960;SDS011;5021;51.506;11.320;2022-12-18T09:01:49;36.30;;;22.63;;
9960;SDS011;5021;51.506;11.320;2022-12-18T09:04:15;29.03;;;20.53;;
9960;SDS011;5021;51.506;11.320;2022-12-18T09:06:41;30.57;;;20.53;;
9960;SDS011;5021;51.506;11.320;2022-12-18T09:09:09;29.03;;;19.13;;
9960;SDS011;5021;51.506;11.320;2022-12-18T09:11:35;35.30;;;20.70;;
9960;SDS011;5021;51.506;11.320;2022-12-18T09:14:01;30.50;;;19.00;;
9960;SDS011;5021;51.506;11.320;2022-12-18T09:16:28;31.10;;;21.60;;
9960;SDS011;5021;51.506;11.320;2022-12-18T09:18:54;36.10;;;20.93;;
9960;SDS011;5021;51.506;11.320;2022-12-18T09:21:24;30.70;;;20.70;;
9960;SDS011;5021;51.506;11.320;2022-12-18T09:23:51;30.20;;;18.43;;
9960;SDS011;5021;51.506;11.320;2022-12-18T09:26:18;31.27;;;19.03;;
9960;SDS011;5021;51.506;11.320;2022-12-18T09:28:44;31.40;;;19.13;;
9960;SDS011;5021;51.506;11.320;2022-12-18T09:31:10;34.37;;;20.03;;
9960;SDS011;5021;51.506;11.320;2022-12-18T09:33:40;36.93;;;22.67;;
9960;SDS011;5021;51.506;11.320;2022-12-18T09:36:06;35.03;;;21.83;;
9960;SDS011;5021;51.506;11.320;2022-12-18T09:38:33;39.73;;;24.43;;
9960;SDS011;5021;51.506;11.320;2022-12-18T09:43:47;31.30;;;21.47;;
9960;SDS011;5021;51.506;11.320;2022-12-18T09:46:33;34.80;;;21.93;;
9960;SDS011;5021;51.506;11.320;2022-12-18T09:49:00;28.53;;;18.93;;
9960;SDS011;5021;51.506;11.320;2022-12-18T09:51:28;32.77;;;19.97;;
9960;SDS011;5021;51.506;11.320;2022-12-18T09:54:10;29.07;;;17.77;;
9960;SDS011;5021;51.506;11.320;2022-12-18T09:56:38;31.47;;;19.23;;
9960;SDS011;5021;51.506;11.320;2022-12-18T09:59:09;27.33;;;17.50;;
9960;SDS011;5021;51.506;11.320;2022-12-18T10:01:39;32.13;;;18.77;;
9960;SDS011;5021;51.506;11.320;2022-12-18T10:04:08;35.97;;;21.27;;
9960;SDS011;5021;51.506;11.320;2022-12-18T10:06:35;30.23;;;19.70;;
9960;SDS011;5021;51.506;11.320;2022-12-18T10:09:53;35.13;;;21.83;;
9960;SDS011;5021;51.506;11.320;2022-12-18T10:14:49;35.80;;;22.17;;
9960;SDS011;5021;51.506;11.320;2022-12-18T10:19:50;36.07;;;21.93;;
9960;SDS011;5021;51.506;11.320;2022-12-18T10:24:54;34.07;;;23.43;;
9960;SDS011;5021;51.506;11.320;2022-12-18T10:27:23;35.77;;;24.13;;
9960;SDS011;5021;51.506;11.320;2022-12-18T10:29:50;35.90;;;24.17;;
9960;SDS011;5021;51.506;11.320;2022-12-18T10:32:18;36.07;;;24.03;;
9960;SDS011;5021;51.506;11.320;2022-12-18T10:34:48;35.27;;;23.73;;
9960;SDS011;5021;51.506;11.320;2022-12-18T10:37:15;38.23;;;25.60;;
9960;SDS011;5021;51.506;11.320;2022-12-18T10:39:42;36.77;;;24.77;;
9960;SDS011;5021;51.506;11.320;2022-12-18T10:42:16;41.67;;;25.53;;
9960;SDS011;5021;51.506;11.320;2022-12-18T10:44:42;40.30;;;26.33;;
9960;SDS011;5021;51.506;11.320;2022-12-18T10:47:11;36.97;;;25.13;;
9960;SDS011;5021;51.506;11.320;2022-12-18T10:49:38;38.80;;;25.73;;
9960;SDS011;5021;51.506;11.320;2022-12-18T10:52:18;35.90;;;24.63;;
9960;SDS011;5021;51.506;11.320;2022-12-18T10:54:51;43.57;;;27.10;;
9960;SDS011;5021;51.506;11.320;2022-12-18T10:57:29;39.70;;;27.57;;
9960;SDS011;5021;51.506;11.320;2022-12-18T10:59:57;40.40;;;27.33;;
9960;SDS011;5021;51.506;11.320;2022-12-18T11:02:28;41.77;;;28.13;;
9960;SDS011;5021;51.506;11.320;2022-12-18T11:04:59;36.27;;;25.40;;
9960;SDS011;5021;51.506;11.320;2022-12-18T11:07:25;35.67;;;26.03;;
9960;SDS011;5021;51.506;11.320;2022-12-18T11:09:59;34.77;;;24.27;;
9960;SDS011;5021;51.506;11.320;2022-12-18T11:12:27;31.03;;;22.60;;
9960;SDS011;5021;51.506;11.320;2022-12-18T11:14:54;38.33;;;25.20;;
9960;SDS011;5021;51.506;11.320;2022-12-18T11:17:25;32.00;;;22.83;;
9960;SDS011;5021;51.506;11.320;2022-12-18T11:19:55;37.67;;;23.90;;
9960;SDS011;5021;51.506;11.320;2022-12-18T11:22:31;33.60;;;22.87;;
9960;SDS011;5021;51.506;11.320;2022-12-18T11:25:06;35.87;;;23.70;;
9960;SDS011;5021;51.506;11.320;2022-12-18T11:27:49;35.27;;;23.50;;
9960;SDS011;5021;51.506;11.320;2022-12-18T11:32:49;33.87;;;23.80;;
9960;SDS011;5021;51.506;11.320;2022-12-18T11:35:21;40.00;;;26.27;;
9960;SDS011;5021;51.506;11.320;2022-12-18T11:38:02;37.47;;;23.97;;
9960;SDS011;5021;51.506;11.320;2022-12-18T11:40:35;38.40;;;25.87;;
9960;SDS011;5021;51.506;11.320;2022-12-18T11:43:10;32.83;;;22.70;;
9960;SDS011;5021;51.506;11.320;2022-12-18T11:45:40;30.60;;;22.93;;
9960;SDS011;5021;51.506;11.320;2022-12-18T11:51:08;31.83;;;23.43;;
9960;SDS011;5021;51.506;11.320;2022-12-18T11:53:27;29.17;;;21.33;;
9960;SDS011;5021;51.506;11.320;2022-12-18T11:55:56;31.57;;;22.17;;
9960;SDS011;5021;51.506;11.320;2022-12-18T12:11:16;33.93;;;24.30;;
9960;SDS011;5021;51.506;11.320;2022-12-18T12:16:29;38.30;;;25.43;;
9960;SDS011;5021;51.506;11.320;2022-12-18T12:21:38;38.03;;;25.40;;
9960;SDS011;5021;51.506;11.320;2022-12-18T12:26:54;31.40;;;22.93;;
9960;SDS011;5021;51.506;11.320;2022-12-18T12:29:33;32.73;;;23.77;;
9960;SDS011;5021;51.506;11.320;2022-12-18T12:34:31;32.77;;;23.20;;
9960;SDS011;5021;51.506;11.320;2022-12-18T12:37:07;34.37;;;24.40;;
9960;SDS011;5021;51.506;11.320;2022-12-18T12:39:37;32.03;;;23.47;;
9960;SDS011;5021;51.506;11.320;2022-12-18T12:42:10;36.43;;;24.87;;
9960;SDS011;5021;51.506;11.320;2022-12-18T12:44:55;34.03;;;24.73;;
9960;SDS011;5021;51.506;11.320;2022-12-18T12:47:25;33.90;;;24.03;;
9960;SDS011;5021;51.506;11.320;2022-12-18T12:49:52;33.30;;;24.63;;
9960;SDS011;5021;51.506;11.320;2022-12-18T12:54:48;33.23;;;25.07;;
9960;SDS011;5021;51.506;11.320;2022-12-18T12:59:52;32.00;;;23.83;;
9960;SDS011;5021;51.506;11.320;2022-12-18T13:02:28;32.10;;;24.10;;
9960;SDS011;5021;51.506;11.320;2022-12-18T13:04:57;33.27;;;23.33;;
9960;SDS011;5021;51.506;11.320;2022-12-18T13:07:36;34.30;;;24.13;;
9960;SDS011;5021;51.506;11.320;2022-12-18T13:12:52;36.53;;;24.40;;
9960;SDS011;5021;51.506;11.320;2022-12-18T13:15:26;31.97;;;22.87;;
9960;SDS011;5021;51.506;11.320;2022-12-18T13:18:03;31.10;;;21.20;;
9960;SDS011;5021;51.506;11.320;2022-12-18T13:20:34;26.73;;;19.20;;
9960;SDS011;5021;51.506;11.320;2022-12-18T13:23:01;20.90;;;16.10;;
9960;SDS011;5021;51.506;11.320;2022-12-18T13:25:28;25.23;;;17.87;;
9960;SDS011;5021;51.506;11.320;2022-12-18T13:30:41;21.87;;;16.30;;
9960;SDS011;5021;51.506;11.320;2022-12-18T13:38:21;19.23;;;13.27;;
9960;SDS011;5021;51.506;11.320;2022-12-18T13:45:49;17.07;;;11.97;;
9960;SDS011;5021;51.506;11.320;2022-12-18T13:48:24;18.63;;;11.87;;
9960;SDS011;5021;51.506;11.320;2022-12-18T13:50:59;19.23;;;11.80;;
9960;SDS011;5021;51.506;11.320;2022-12-18T13:53:27;15.10;;;11.17;;
9960;SDS011;5021;51.506;11.320;2022-12-18T13:55:53;16.90;;;12.00;;
9960;SDS011;5021;51.506;11.320;2022-12-18T13:58:20;16.17;;;11.33;;
9960;SDS011;5021;51.506;11.320;2022-12-18T14:00:46;15.50;;;10.80;;
9960;SDS011;5021;51.506;11.320;2022-12-18T14:03:23;16.53;;;11.40;;
9960;SDS011;5021;51.506;11.320;2022-12-18T14:06:07;16.00;;;10.97;;
9960;SDS011;5021;51.506;11.320;2022-12-18T14:08:36;15.60;;;11.60;;
9960;SDS011;5021;51.506;11.320;2022-12-18T14:11:03;15.33;;;10.97;;
9960;SDS011;5021;51.506;11.320;2022-12-18T14:13:36;16.10;;;10.33;;
9960;SDS011;5021;51.506;11.320;2022-12-18T14:16:04;18.50;;;12.97;;
9960;SDS011;5021;51.506;11.320;2022-12-18T14:21:03;12.67;;;10.30;;
9960;SDS011;5021;51.506;11.320;2022-12-18T14:23:36;13.90;;;10.27;;
9960;SDS011;5021;51.506;11.320;2022-12-18T14:26:03;12.57;;;10.10;;
9960;SDS011;5021;51.506;11.320;2022-12-18T14:28:44;14.00;;;10.90;;
9960;SDS011;5021;51.506;11.320;2022-12-18T14:31:17;14.87;;;11.10;;
9960;SDS011;5021;51.506;11.320;2022-12-18T14:33:44;13.77;;;10.60;;
9960;SDS011;5021;51.506;11.320;2022-12-18T14:36:18;14.43;;;10.77;;
9960;SDS011;5021;51.506;11.320;2022-12-18T14:38:47;15.90;;;11.50;;
9960;SDS011;5021;51.506;11.320;2022-12-18T14:41:14;16.93;;;11.37;;
9960;SDS011;5021;51.506;11.320;2022-12-18T14:43:41;23.97;;;15.30;;
9960;SDS011;5021;51.506;11.320;2022-12-18T14:49:24;15.03;;;11.03;;
9960;SDS011;5021;51.506;11.320;2022-12-18T14:51:53;20.80;;;14.33;;
9960;SDS011;5021;51.506;11.320;2022-12-18T14:54:20;15.60;;;11.13;;
9960;SDS011;5021;51.506;11.320;2022-12-18T14:56:47;12.37;;;9.83;;
9960;SDS011;5021;51.506;11.320;2022-12-18T14:59:19;13.37;;;10.07;;
9960;SDS011;5021;51.506;11.320;2022-12-18T15:02:10;12.00;;;9.80;;
9960;SDS011;5021;51.506;11.320;2022-12-18T15:04:34;15.43;;;10.73;;
9960;SDS011;5021;51.506;11.320;2022-12-18T15:07:20;16.43;;;11.83;;
9960;SDS011;5021;51.506;11.320;2022-12-18T15:14:57;17.03;;;12.77;;
9960;SDS011;5021;51.506;11.320;2022-12-18T15:17:23;17.10;;;11.50;;
9960;SDS011;5021;51.506;11.320;2022-12-18T15:19:50;15.23;;;11.30;;
9960;SDS011;5021;51.506;11.320;2022-12-18T15:24:43;14.40;;;10.93;;
9960;SDS011;5021;51.506;11.320;2022-12-18T15:27:20;12.60;;;10.30;;
9960;SDS011;5021;51.506;11.320;2022-12-18T15:29:59;17.20;;;10.73;;
9960;SDS011;5021;51.506;11.320;2022-12-18T15:32:25;14.97;;;11.33;;
9960;SDS011;5021;51.506;11.320;2022-12-18T15:34:51;14.57;;;10.97;;
9960;SDS011;5021;51.506;11.320;2022-12-18T15:37:27;14.70;;;10.67;;
9960;SDS011;5021;51.506;11.320;2022-12-18T15:39:53;14.90;;;10.43;;
9960;SDS011;5021;51.506;11.320;2022-12-18T15:42:18;15.73;;;12.43;;
9960;SDS011;5021;51.506;11.320;2022-12-18T15:45:03;59.90;;;33.70;;
9960;SDS011;5021;51.506;11.320;2022-12-18T15:47:29;20.97;;;15.10;;
9960;SDS011;5021;51.506;11.320;2022-12-18T15:49:56;25.43;;;16.93;;
9960;SDS011;5021;51.506;11.320;2022-12-18T15:52:21;30.60;;;21.40;;
9960;SDS011;5021;51.506;11.320;2022-12-18T15:54:50;27.63;;;18.37;;
9960;SDS011;5021;51.506;11.320;2022-12-18T15:57:35;32.17;;;21.20;;
9960;SDS011;5021;51.506;11.320;2022-12-18T16:00:01;52.63;;;31.80;;
9960;SDS011;5021;51.506;11.320;2022-12-18T16:02:27;38.60;;;20.80;;
9960;SDS011;5021;51.506;11.320;2022-12-18T16:04:53;35.57;;;24.57;;
9960;SDS011;5021;51.506;11.320;2022-12-18T16:07:19;33.97;;;21.17;;
9960;SDS011;5021;51.506;11.320;2022-12-18T16:09:45;28.97;;;19.10;;
9960;SDS011;5021;51.506;11.320;2022-12-18T16:12:19;21.90;;;15.90;;
9960;SDS011;5021;51.506;11.320;2022-12-18T16:14:46;23.27;;;17.07;;
9960;SDS011;5021;51.506;11.320;2022-12-18T16:17:12;49.23;;;30.23;;
9960;SDS011;5021;51.506;11.320;2022-12-18T16:19:39;56.63;;;33.77;;